createdAt,value
2023-05-07T00:01:59.014Z,36.97
2023-05-07T00:04:25.886Z,41.70
2023-05-07T00:06:52.650Z,37.05
2023-05-07T00:09:19.421Z,40.58
2023-05-07T00:11:46.329Z,41.13
2023-05-07T00:14:12.968Z,38.75
2023-05-07T00:16:39.597Z,39.95
2023-05-07T00:19:06.315Z,40.95
2023-05-07T00:21:32.957Z,39.75
2023-05-07T00:23:59.859Z,45.13
2023-05-07T00:26:26.454Z,40.85
2023-05-07T00:28:53.189Z,44.28
2023-05-07T00:31:19.882Z,46.45
2023-05-07T00:33:46.565Z,42.25
2023-05-07T00:36:13.289Z,45.75
2023-05-07T00:38:40.383Z,44.30
2023-05-07T00:41:07.538Z,42.83
2023-05-07T00:43:34.161Z,45.63
2023-05-07T00:46:01.567Z,46.50
2023-05-07T00:48:28.344Z,46.72
2023-05-07T00:50:55.306Z,50.42
2023-05-07T00:53:22.221Z,47.38
2023-05-07T00:55:49.717Z,48.97
2023-05-07T00:58:16.582Z,51.63
2023-05-07T01:00:43.507Z,50.53
2023-05-07T01:03:10.396Z,47.45
2023-05-07T01:05:37.516Z,51.08
2023-05-07T01:08:06.081Z,46.10
2023-05-07T01:10:33.011Z,49.25
2023-05-07T01:13:01.277Z,50.03
2023-05-07T01:15:28.373Z,48.70
2023-05-07T01:17:57.376Z,50.33
2023-05-07T01:20:31.218Z,49.60
2023-05-07T01:22:58.544Z,52.38
2023-05-07T01:25:25.760Z,58.53
2023-05-07T01:27:55.968Z,50.08
2023-05-07T01:30:27.109Z,51.10
2023-05-07T01:33:11.766Z,51.35
2023-05-07T01:35:42.600Z,48.50
2023-05-07T01:38:09.884Z,49.97
2023-05-07T01:40:36.660Z,51.35
2023-05-07T01:43:04.367Z,55.92
2023-05-07T01:45:33.272Z,49.17
2023-05-07T01:48:00.697Z,46.25
2023-05-07T01:50:28.476Z,49.35
2023-05-07T01:52:55.409Z,53.03
2023-05-07T01:55:22.182Z,50.13
2023-05-07T01:57:49.501Z,58.97
2023-05-07T02:00:16.623Z,51.63
2023-05-07T02:02:43.382Z,52.10
2023-05-07T02:05:20.816Z,52.22
2023-05-07T02:07:53.158Z,49.70
2023-05-07T02:10:19.876Z,51.80
2023-05-07T02:12:46.601Z,54.83
2023-05-07T02:15:13.342Z,54.25
2023-05-07T02:18:08.676Z,54.20
2023-05-07T02:20:35.807Z,55.35
2023-05-07T02:23:03.122Z,55.80
2023-05-07T02:25:30.974Z,56.10
2023-05-07T02:27:59.097Z,50.45
2023-05-07T02:30:38.550Z,58.28
2023-05-07T02:33:06.177Z,52.92
2023-05-07T02:35:32.976Z,58.28
2023-05-07T02:37:59.666Z,54.20
2023-05-07T02:40:26.824Z,54.65
2023-05-07T02:42:53.436Z,57.85
2023-05-07T02:45:20.199Z,59.03
2023-05-07T02:47:50.273Z,55.40
2023-05-07T02:50:17.258Z,57.83
2023-05-07T02:52:44.044Z,63.22
2023-05-07T02:55:11.505Z,59.47
2023-05-07T02:57:38.229Z,65.30
2023-05-07T03:00:24.568Z,59.50
2023-05-07T03:03:17.961Z,62.22
2023-05-07T03:05:44.781Z,64.95
2023-05-07T03:08:11.381Z,58.70
2023-05-07T03:10:38.262Z,62.45
2023-05-07T03:13:05.349Z,69.63
2023-05-07T03:15:32.436Z,61.25
2023-05-07T03:17:59.206Z,66.40
2023-05-07T03:20:26.453Z,70.65
2023-05-07T03:22:53.637Z,69.18
2023-05-07T03:25:20.326Z,73.30
2023-05-07T03:27:47.246Z,75.72
2023-05-07T03:30:14.152Z,78.68
2023-05-07T03:32:41.568Z,74.45
2023-05-07T03:35:11.759Z,70.80
2023-05-07T03:37:39.558Z,76.45
2023-05-07T03:40:07.063Z,74.32
2023-05-07T03:42:42.016Z,68.15
2023-05-07T03:45:10.014Z,78.05
2023-05-07T03:47:37.948Z,74.93
2023-05-07T03:50:06.647Z,74.97
2023-05-07T03:52:33.278Z,76.18
2023-05-07T03:55:02.087Z,73.70
2023-05-07T03:57:30.434Z,82.38
2023-05-07T03:59:59.361Z,79.88
2023-05-07T04:02:26.586Z,71.75
2023-05-07T04:04:53.537Z,83.38
2023-05-07T04:07:21.022Z,77.10
2023-05-07T04:09:50.484Z,74.75
2023-05-07T04:12:17.169Z,70.60
2023-05-07T04:14:43.836Z,72.60
2023-05-07T04:17:11.625Z,80.57
2023-05-07T04:19:38.873Z,73.75
2023-05-07T04:22:05.564Z,70.85
2023-05-07T04:24:36.236Z,72.45
2023-05-07T04:27:04.392Z,71.70
2023-05-07T04:29:31.087Z,70.90
2023-05-07T04:31:59.737Z,74.10
2023-05-07T04:34:27.613Z,67.85
2023-05-07T04:36:54.390Z,70.00
2023-05-07T04:39:21.099Z,75.75
2023-05-07T04:41:48.995Z,68.30
2023-05-07T04:44:15.797Z,65.57
2023-05-07T04:46:43.816Z,69.25
2023-05-07T04:49:11.161Z,69.13
2023-05-07T04:51:39.032Z,70.65
2023-05-07T04:54:06.011Z,70.40
2023-05-07T04:56:32.721Z,63.30
2023-05-07T04:59:00.990Z,63.63
2023-05-07T05:01:28.494Z,73.25
2023-05-07T05:03:55.471Z,63.42
2023-05-07T05:06:22.331Z,66.63
2023-05-07T05:08:50.077Z,70.43
2023-05-07T05:11:17.036Z,62.40
2023-05-07T05:13:43.725Z,67.68
2023-05-07T05:16:16.636Z,59.10
2023-05-07T05:18:43.402Z,62.38
2023-05-07T05:21:12.093Z,64.18
2023-05-07T05:23:40.422Z,64.90
2023-05-07T05:26:07.077Z,64.22
2023-05-07T05:28:34.688Z,66.28
2023-05-07T05:31:03.034Z,62.83
2023-05-07T05:33:33.541Z,66.15
2023-05-07T05:36:04.420Z,60.33
2023-05-07T05:38:31.340Z,56.05
2023-05-07T05:40:58.072Z,61.20
2023-05-07T05:43:24.810Z,53.00
2023-05-07T05:45:51.512Z,58.08
2023-05-07T05:48:18.526Z,55.70
2023-05-07T05:50:45.292Z,62.70
2023-05-07T05:53:12.320Z,52.85
2023-05-07T05:55:40.301Z,59.17
2023-05-07T05:58:06.959Z,56.03
2023-05-07T06:00:37.258Z,49.20
2023-05-07T06:03:05.999Z,54.55
2023-05-07T06:05:32.843Z,51.43
2023-05-07T06:07:59.467Z,52.13
2023-05-07T06:10:31.480Z,57.70
2023-05-07T06:12:58.531Z,51.90
2023-05-07T06:15:25.250Z,51.90
2023-05-07T06:17:52.784Z,51.30
2023-05-07T06:20:19.507Z,52.15
2023-05-07T06:22:46.193Z,46.95
2023-05-07T06:25:14.383Z,47.60
2023-05-07T06:27:42.981Z,45.25
2023-05-07T06:30:10.082Z,47.25
2023-05-07T06:32:37.733Z,42.38
2023-05-07T06:35:05.040Z,48.00
2023-05-07T06:37:31.734Z,41.80
2023-05-07T06:40:05.664Z,42.42
2023-05-07T06:42:34.482Z,45.85
2023-05-07T06:45:18.121Z,44.08
2023-05-07T06:47:44.793Z,38.33
2023-05-07T06:50:11.846Z,39.78
2023-05-07T06:52:39.250Z,42.63
2023-05-07T06:55:07.497Z,40.25
2023-05-07T06:57:34.135Z,37.00
2023-05-07T07:00:00.747Z,35.22
2023-05-07T07:02:27.425Z,42.15
2023-05-07T07:04:55.020Z,38.20
2023-05-07T07:07:21.760Z,36.95
2023-05-07T07:09:50.592Z,35.40
2023-05-07T07:12:19.047Z,35.72
2023-05-07T07:14:45.734Z,36.28
2023-05-07T07:17:13.364Z,36.15
2023-05-07T07:19:40.546Z,34.22
2023-05-07T07:22:07.362Z,37.55
2023-05-07T07:24:34.097Z,35.97
2023-05-07T07:27:04.240Z,34.97
2023-05-07T07:29:33.784Z,34.28
2023-05-07T07:32:00.665Z,35.53
2023-05-07T07:34:27.518Z,35.47
2023-05-07T07:36:54.308Z,33.83
2023-05-07T07:39:21.212Z,36.25
2023-05-07T07:41:50.671Z,35.10
2023-05-07T07:44:19.078Z,33.90
2023-05-07T07:46:51.526Z,33.45
2023-05-07T07:49:18.787Z,34.83
2023-05-07T07:51:45.521Z,31.42
2023-05-07T07:54:13.241Z,31.75
2023-05-07T07:56:40.781Z,33.55
2023-05-07T07:59:08.815Z,32.63
2023-05-07T08:01:38.590Z,33.10
2023-05-07T08:04:06.975Z,32.97
2023-05-07T08:06:37.521Z,33.90
2023-05-07T08:09:04.564Z,36.28
2023-05-07T08:11:31.589Z,37.15
2023-05-07T08:13:59.199Z,34.65
2023-05-07T08:16:26.185Z,36.10
2023-05-07T08:18:53.679Z,36.22
2023-05-07T08:21:21.081Z,35.95
2023-05-07T08:23:47.709Z,35.25
2023-05-07T08:26:14.469Z,36.30
2023-05-07T08:28:41.474Z,34.20
2023-05-07T08:31:08.547Z,37.17
2023-05-07T08:33:39.169Z,35.20
2023-05-07T08:36:06.774Z,36.15
2023-05-07T08:38:33.984Z,37.17
2023-05-07T08:41:01.069Z,37.65
2023-05-07T08:43:32.345Z,36.42
2023-05-07T08:46:03.151Z,36.72
2023-05-07T08:48:33.817Z,35.67
2023-05-07T08:51:07.639Z,35.93
2023-05-07T08:53:36.276Z,35.50
2023-05-07T08:56:03.717Z,35.17
2023-05-07T08:58:31.028Z,36.25
2023-05-07T09:00:58.310Z,36.70
2023-05-07T09:03:25.397Z,38.40
2023-05-07T09:05:54.863Z,36.90
2023-05-07T09:08:26.867Z,35.72
2023-05-07T09:10:55.471Z,36.00
2023-05-07T09:13:23.370Z,39.00
2023-05-07T09:15:50.599Z,35.42
2023-05-07T09:18:17.553Z,36.83
2023-05-07T09:20:46.909Z,36.60
2023-05-07T09:23:14.852Z,36.78
2023-05-07T09:25:43.583Z,38.13
2023-05-07T09:28:16.463Z,38.30
2023-05-07T09:30:43.182Z,36.17
2023-05-07T09:33:12.419Z,36.53
2023-05-07T09:35:42.590Z,38.10
2023-05-07T09:38:16.882Z,37.95
2023-05-07T09:40:43.552Z,36.30
2023-05-07T09:43:14.897Z,36.47
2023-05-07T09:45:56.105Z,36.78
2023-05-07T09:48:27.586Z,36.90
2023-05-07T09:51:00.901Z,37.08
2023-05-07T09:53:32.100Z,36.08
2023-05-07T09:56:03.723Z,35.78
2023-05-07T09:58:33.304Z,36.78
2023-05-07T10:01:01.694Z,37.90
2023-05-07T10:03:30.984Z,38.05
2023-05-07T10:06:04.318Z,38.13
2023-05-07T10:08:31.816Z,35.88
2023-05-07T10:11:01.141Z,33.58
2023-05-07T10:13:30.283Z,36.60
2023-05-07T10:15:59.302Z,35.55
2023-05-07T10:18:33.570Z,37.58
2023-05-07T10:21:16.945Z,37.35
2023-05-07T10:23:48.835Z,37.15
2023-05-07T10:26:18.077Z,36.55
2023-05-07T10:28:49.957Z,37.17
2023-05-07T10:31:46.138Z,35.92
2023-05-07T10:34:17.813Z,33.72
2023-05-07T10:36:45.909Z,34.63
2023-05-07T10:39:13.956Z,34.60
2023-05-07T10:41:41.357Z,33.65
2023-05-07T10:44:08.554Z,34.75
2023-05-07T10:46:36.937Z,34.15
2023-05-07T10:49:17.880Z,33.13
2023-05-07T10:52:18.601Z,35.28
2023-05-07T10:55:22.146Z,32.72
2023-05-07T10:58:31.358Z,33.60
2023-05-07T11:01:50.282Z,34.42
2023-05-07T11:04:25.136Z,32.63
2023-05-07T11:07:07.912Z,30.80
2023-05-07T11:09:52.719Z,31.40
2023-05-07T11:12:38.882Z,31.92
2023-05-07T11:15:13.236Z,30.92
2023-05-07T11:18:00.094Z,30.02
2023-05-07T11:20:55.530Z,31.77
2023-05-07T11:23:35.718Z,32.33
2023-05-07T11:26:12.610Z,31.38
2023-05-07T11:28:42.701Z,31.88
2023-05-07T11:31:11.628Z,33.35
2023-05-07T11:33:39.805Z,33.47
2023-05-07T11:36:10.750Z,35.22
2023-05-07T11:38:43.119Z,32.60
2023-05-07T11:41:09.817Z,32.35
2023-05-07T11:43:37.050Z,31.27
2023-05-07T11:46:12.618Z,31.63
2023-05-07T11:48:40.197Z,30.13
2023-05-07T11:51:09.692Z,31.25
2023-05-07T11:53:38.490Z,30.95
2023-05-07T11:56:16.343Z,31.77
2023-05-07T11:58:44.930Z,31.92
2023-05-07T12:01:13.026Z,30.00
2023-05-07T12:03:44.845Z,33.10
2023-05-07T12:06:12.752Z,31.38
2023-05-07T12:08:41.070Z,32.40
2023-05-07T12:11:15.588Z,36.10
2023-05-07T12:13:42.814Z,34.25
2023-05-07T12:16:10.270Z,33.20
2023-05-07T12:18:38.001Z,32.42
2023-05-07T12:21:06.144Z,33.08
2023-05-07T12:23:33.152Z,33.28
2023-05-07T12:26:00.805Z,33.15
2023-05-07T12:28:31.599Z,33.30
2023-05-07T12:30:58.787Z,32.53
2023-05-07T12:33:27.452Z,32.45
2023-05-07T12:35:56.546Z,34.20
2023-05-07T12:38:23.906Z,32.58
2023-05-07T12:40:56.917Z,33.03
2023-05-07T12:43:28.858Z,34.17
2023-05-07T12:45:58.293Z,34.78
2023-05-07T12:48:27.792Z,33.00
2023-05-07T12:50:55.250Z,33.67
2023-05-07T12:53:23.660Z,34.30
2023-05-07T12:55:52.702Z,36.35
2023-05-07T12:58:21.217Z,34.75
2023-05-07T13:00:52.004Z,36.67
2023-05-07T13:03:24.383Z,37.13
2023-05-07T13:05:52.544Z,39.05
2023-05-07T13:08:31.202Z,38.63
2023-05-07T13:10:59.985Z,37.20
2023-05-07T13:13:27.219Z,35.53
2023-05-07T13:15:54.756Z,37.35
2023-05-07T13:18:21.646Z,38.85
2023-05-07T13:20:48.705Z,40.28
2023-05-07T13:23:15.805Z,39.08
2023-05-07T13:25:42.748Z,40.53
2023-05-07T13:28:13.036Z,38.47
2023-05-07T13:34:43.049Z,40.50
2023-05-07T13:37:11.446Z,38.50
2023-05-07T13:39:38.332Z,40.67
2023-05-07T13:42:05.010Z,39.83
2023-05-07T13:44:31.577Z,39.50
2023-05-07T13:46:58.176Z,40.15
2023-05-07T13:49:25.187Z,40.22
2023-05-07T13:51:51.834Z,41.47
2023-05-07T13:54:18.630Z,41.63
2023-05-07T13:56:45.255Z,40.33
2023-05-07T13:59:11.902Z,39.45
2023-05-07T14:01:38.585Z,39.80
2023-05-07T14:04:05.442Z,39.63
2023-05-07T14:06:32.184Z,40.10
2023-05-07T14:08:59.030Z,40.70
2023-05-07T14:11:25.691Z,41.08
2023-05-07T14:13:52.341Z,41.47
2023-05-07T14:16:18.926Z,40.45
2023-05-07T14:18:45.665Z,40.05
2023-05-07T14:21:12.238Z,44.78
2023-05-07T14:23:38.905Z,44.00
2023-05-07T14:26:05.646Z,42.40
2023-05-07T14:28:32.339Z,42.97
2023-05-07T14:30:59.483Z,43.38
2023-05-07T14:33:26.133Z,40.33
2023-05-07T14:35:52.729Z,41.17
2023-05-07T14:38:20.785Z,41.88
2023-05-07T14:40:47.447Z,41.78
2023-05-07T14:43:14.058Z,39.40
2023-05-07T14:45:41.065Z,43.17
2023-05-07T14:48:07.710Z,42.53
2023-05-07T14:50:34.320Z,42.30
2023-05-07T14:53:00.976Z,40.05
2023-05-07T14:55:27.720Z,43.00
2023-05-07T14:57:54.351Z,41.42
2023-05-07T15:00:21.137Z,41.83
2023-05-07T15:02:47.862Z,42.35
2023-05-07T15:05:15.581Z,42.85
2023-05-07T15:07:42.192Z,42.28
2023-05-07T15:10:09.343Z,41.75
2023-05-07T15:12:36.064Z,41.75
2023-05-07T15:15:03.147Z,40.38
2023-05-07T15:17:29.812Z,39.45
2023-05-07T15:19:56.609Z,40.75
2023-05-07T15:22:23.262Z,40.55
2023-05-07T15:24:49.862Z,39.20
2023-05-07T15:27:17.896Z,38.95
2023-05-07T15:29:44.521Z,39.20
2023-05-07T15:32:11.534Z,40.75
2023-05-07T15:34:38.241Z,40.70
2023-05-07T15:37:04.874Z,40.72
2023-05-07T15:39:31.938Z,40.50
2023-05-07T15:41:58.602Z,42.40
2023-05-07T15:44:29.482Z,41.13
2023-05-07T15:46:56.144Z,40.00
2023-05-07T15:49:22.990Z,40.28
2023-05-07T15:51:51.627Z,43.28
2023-05-07T15:54:20.841Z,41.72
2023-05-07T15:56:47.964Z,40.15
2023-05-07T15:59:17.221Z,39.70
2023-05-07T16:01:44.995Z,40.45
2023-05-07T16:04:11.822Z,39.70
2023-05-07T16:06:38.468Z,38.38
2023-05-07T16:09:05.284Z,36.88
2023-05-07T16:11:33.691Z,39.22
2023-05-07T16:14:03.140Z,37.90
2023-05-07T16:16:33.717Z,38.85
2023-05-07T16:19:00.616Z,39.60
2023-05-07T16:21:27.338Z,38.17
2023-05-07T16:23:54.143Z,38.42
2023-05-07T16:26:21.075Z,37.53
2023-05-07T16:28:47.945Z,38.45
2023-05-07T16:31:14.748Z,37.35
2023-05-07T16:33:41.410Z,37.83
2023-05-07T16:36:08.153Z,36.65
2023-05-07T16:38:34.917Z,38.85
2023-05-07T16:41:01.645Z,38.92
2023-05-07T16:43:28.431Z,39.45
2023-05-07T16:45:55.234Z,37.28
2023-05-07T16:48:22.009Z,37.30
2023-05-07T16:50:48.710Z,38.78
2023-05-07T16:53:15.538Z,39.10
2023-05-07T16:55:42.357Z,37.28
2023-05-07T16:58:11.094Z,37.58
2023-05-07T17:00:49.160Z,41.10
2023-05-07T17:03:18.282Z,40.80
2023-05-07T17:05:45.301Z,43.53
2023-05-07T17:08:13.375Z,40.38
2023-05-07T17:10:40.158Z,38.63
2023-05-07T17:13:07.086Z,40.42
2023-05-07T17:15:33.730Z,39.05
2023-05-07T17:18:00.483Z,43.42
2023-05-07T17:20:27.137Z,37.40
2023-05-07T17:22:53.944Z,37.05
2023-05-07T17:25:20.900Z,37.53
2023-05-07T17:27:47.509Z,36.88
2023-05-07T17:30:15.613Z,36.70
2023-05-07T17:32:42.671Z,35.88
2023-05-07T17:35:09.689Z,35.38
2023-05-07T17:37:36.344Z,38.63
2023-05-07T17:40:03.493Z,36.83
2023-05-07T17:42:31.784Z,36.42
2023-05-07T17:44:58.449Z,36.83
2023-05-07T17:47:25.194Z,35.83
2023-05-07T17:49:51.895Z,34.90
2023-05-07T17:52:18.496Z,36.40
2023-05-07T17:54:45.116Z,36.10
2023-05-07T17:57:11.769Z,40.00
2023-05-07T17:59:39.103Z,35.85
2023-05-07T18:02:06.334Z,35.67
2023-05-07T18:04:32.959Z,36.10
2023-05-07T18:06:59.862Z,35.20
2023-05-07T18:09:26.535Z,35.17
2023-05-07T18:11:53.270Z,35.83
2023-05-07T18:14:23.912Z,34.10
2023-05-07T18:16:50.534Z,34.65
2023-05-07T18:19:17.370Z,35.60
2023-05-07T18:21:44.009Z,35.58
2023-05-07T18:24:11.077Z,35.28
2023-05-07T18:26:37.790Z,33.70
2023-05-07T18:29:04.410Z,34.05
2023-05-07T18:31:31.386Z,34.55
2023-05-07T18:33:57.989Z,32.75
2023-05-07T18:36:27.981Z,31.10
2023-05-07T18:38:54.999Z,30.75
2023-05-07T18:41:21.676Z,32.50
2023-05-07T18:43:48.337Z,30.02
2023-05-07T18:46:15.003Z,30.38
2023-05-07T18:48:41.721Z,29.40
2023-05-07T18:51:12.290Z,30.08
2023-05-07T18:53:40.162Z,30.15
2023-05-07T18:56:07.456Z,30.92
2023-05-07T18:58:34.719Z,33.22
2023-05-07T19:01:01.599Z,31.08
2023-05-07T19:03:28.395Z,30.45
2023-05-07T19:05:55.767Z,33.72
2023-05-07T19:08:22.382Z,30.92
2023-05-07T19:10:49.066Z,31.10
2023-05-07T19:13:15.750Z,32.88
2023-05-07T19:15:42.488Z,30.85
2023-05-07T19:18:09.248Z,32.25
2023-05-07T19:20:36.003Z,29.80
2023-05-07T19:23:03.073Z,32.17
2023-05-07T19:25:29.679Z,30.73
2023-05-07T19:27:57.058Z,31.08
2023-05-07T19:30:23.716Z,31.35
2023-05-07T19:32:50.377Z,29.83
2023-05-07T19:35:17.104Z,30.10
2023-05-07T19:37:43.710Z,32.28
2023-05-07T19:40:10.971Z,37.05
2023-05-07T19:42:37.858Z,31.30
2023-05-07T19:45:05.448Z,29.50
2023-05-07T19:47:32.242Z,29.50
2023-05-07T19:49:59.026Z,29.40
2023-05-07T19:52:26.404Z,30.00
2023-05-07T19:54:53.437Z,30.08
2023-05-07T19:57:20.245Z,27.75
2023-05-07T19:59:47.485Z,29.65
2023-05-07T20:02:15.130Z,28.65
2023-05-07T20:04:42.015Z,29.25
2023-05-07T20:07:08.766Z,28.42
2023-05-07T20:09:35.455Z,27.38
2023-05-07T20:12:02.185Z,30.35
2023-05-07T20:14:28.898Z,29.23
2023-05-07T20:16:55.610Z,29.20
2023-05-07T20:19:22.288Z,28.15
2023-05-07T20:21:48.929Z,29.70
2023-05-07T20:24:18.971Z,32.05
2023-05-07T20:26:46.259Z,28.92
2023-05-07T20:29:12.922Z,29.08
2023-05-07T20:31:40.254Z,29.73
2023-05-07T20:34:07.553Z,29.40
2023-05-07T20:36:34.244Z,28.80
2023-05-07T20:39:00.862Z,28.05
2023-05-07T20:41:27.651Z,29.63
2023-05-07T20:43:54.301Z,29.02
2023-05-07T20:46:22.492Z,29.30
2023-05-07T20:48:49.635Z,27.38
2023-05-07T20:51:16.428Z,28.90
2023-05-07T20:53:47.784Z,27.17
2023-05-07T20:56:15.258Z,27.45
2023-05-07T20:58:42.101Z,27.77
2023-05-07T21:01:08.827Z,28.67
2023-05-07T21:03:35.576Z,26.67
2023-05-07T21:06:02.939Z,29.88
2023-05-07T21:08:29.916Z,27.30
2023-05-07T21:10:57.720Z,26.95
2023-05-07T21:13:24.488Z,27.13
2023-05-07T21:15:51.357Z,26.48
2023-05-07T21:18:18.755Z,27.27
2023-05-07T21:20:45.697Z,26.67
2023-05-07T21:23:12.482Z,26.85
2023-05-07T21:25:40.825Z,26.88
2023-05-07T21:28:08.746Z,27.20
2023-05-07T21:30:36.428Z,26.58
2023-05-07T21:33:04.427Z,26.83
2023-05-07T21:35:32.162Z,27.23
2023-05-07T21:38:00.554Z,26.42
2023-05-07T21:40:27.139Z,25.45
2023-05-07T21:42:54.173Z,25.63
2023-05-07T21:45:20.850Z,25.52
2023-05-07T21:47:47.539Z,25.65
2023-05-07T21:50:14.546Z,25.23
2023-05-07T21:52:41.720Z,27.73
2023-05-07T21:55:08.788Z,30.50
2023-05-07T21:57:40.772Z,30.15
2023-05-07T22:00:09.140Z,26.30
2023-05-07T22:02:36.734Z,25.63
2023-05-07T22:05:04.463Z,26.75
2023-05-07T22:07:31.627Z,27.42
2023-05-07T22:09:58.264Z,26.10
2023-05-07T22:12:24.909Z,26.10
2023-05-07T22:14:51.563Z,28.40
2023-05-07T22:17:18.150Z,25.08
2023-05-07T22:19:45.267Z,24.45
2023-05-07T22:22:11.943Z,24.30
2023-05-07T22:24:38.541Z,26.60
2023-05-07T22:27:05.364Z,23.45
2023-05-07T22:29:31.954Z,23.25
2023-05-07T22:31:58.816Z,35.33
2023-05-07T22:34:25.884Z,24.13
2023-05-07T22:36:52.575Z,22.80
2023-05-07T22:39:19.592Z,23.67
2023-05-07T22:41:46.552Z,22.90
2023-05-07T22:44:13.761Z,23.17
2023-05-07T22:46:40.485Z,22.52
2023-05-07T22:49:07.171Z,21.23
2023-05-07T22:51:33.809Z,22.73
2023-05-07T22:54:00.424Z,21.95
2023-05-07T22:56:27.154Z,21.20
2023-05-07T22:58:53.781Z,22.55
2023-05-07T23:01:20.762Z,22.13
2023-05-07T23:03:47.721Z,21.27
2023-05-07T23:06:14.438Z,22.60
2023-05-07T23:08:41.041Z,22.23
2023-05-07T23:11:07.717Z,22.20
2023-05-07T23:13:34.311Z,23.65
2023-05-07T23:16:00.927Z,22.42
2023-05-07T23:18:27.995Z,23.38
2023-05-07T23:20:54.882Z,24.27
2023-05-07T23:23:21.959Z,22.13
2023-05-07T23:25:51.435Z,21.33
2023-05-07T23:28:18.314Z,22.30
2023-05-07T23:30:45.018Z,23.02
2023-05-07T23:33:11.672Z,23.63
2023-05-07T23:35:38.265Z,23.30
2023-05-07T23:38:04.861Z,23.67
2023-05-07T23:40:31.484Z,23.92
2023-05-07T23:42:58.135Z,22.67
2023-05-07T23:45:24.744Z,23.38
2023-05-07T23:47:51.523Z,23.00
2023-05-07T23:50:18.253Z,23.60
2023-05-07T23:52:44.838Z,22.67
2023-05-07T23:55:11.445Z,23.52
2023-05-07T23:57:38.065Z,25.33
